createdAt,value
2022-10-09T00:01:57.146Z,11.70
2022-10-09T00:04:46.248Z,8.47
2022-10-09T00:07:36.436Z,8.33
2022-10-09T00:13:12.766Z,7.23
2022-10-09T00:18:55.868Z,17.63
2022-10-09T00:24:32.855Z,10.90
2022-10-09T00:30:11.815Z,5.70
2022-10-09T00:35:44.636Z,5.70
2022-10-09T00:41:22.691Z,9.80
2022-10-09T00:45:00.248Z,8.50
2022-10-09T00:47:50.086Z,8.80
2022-10-09T00:50:43.697Z,7.83
2022-10-09T00:56:13.411Z,9.53
2022-10-09T01:01:49.855Z,8.40
2022-10-09T01:04:38.664Z,7.87
2022-10-09T01:10:26.352Z,10.83
2022-10-09T01:13:17.637Z,6.67
2022-10-09T01:19:02.022Z,6.93
2022-10-09T01:21:54.093Z,5.47
2022-10-09T01:27:22.956Z,7.60
2022-10-09T01:32:54.952Z,7.50
2022-10-09T01:38:25.506Z,8.77
2022-10-09T01:43:59.205Z,12.00
2022-10-09T01:46:50.576Z,8.27
2022-10-09T01:52:44.080Z,7.07
2022-10-09T02:01:23.395Z,10.13
2022-10-09T02:04:14.058Z,13.40
2022-10-09T02:09:41.041Z,5.07
2022-10-09T02:15:18.601Z,7.30
2022-10-09T02:23:44.244Z,9.17
2022-10-09T02:29:31.584Z,6.90
2022-10-09T02:32:20.146Z,8.97
2022-10-09T02:37:57.817Z,8.03
2022-10-09T02:40:46.834Z,5.03
2022-10-09T02:46:22.984Z,7.70
2022-10-09T02:52:01.189Z,9.07
2022-10-09T02:54:53.511Z,9.10
2022-10-09T03:00:29.891Z,6.07
2022-10-09T03:03:18.148Z,9.50
2022-10-09T03:08:58.702Z,5.30
2022-10-09T03:11:48.395Z,11.03
2022-10-09T03:17:24.244Z,6.37
2022-10-09T03:20:12.710Z,8.87
2022-10-09T03:25:39.704Z,5.57
2022-10-09T03:31:50.040Z,5.17
2022-10-09T03:37:01.151Z,7.63
2022-10-09T03:42:37.459Z,8.00
2022-10-09T03:48:15.598Z,5.10
2022-10-09T03:51:05.450Z,5.53
2022-10-09T03:56:40.262Z,5.83
2022-10-09T04:02:23.594Z,5.50
2022-10-09T04:08:02.059Z,5.53
2022-10-09T04:13:39.451Z,7.67
2022-10-09T04:19:10.067Z,6.67
2022-10-09T04:24:46.594Z,10.17
2022-10-09T04:30:16.603Z,7.53
2022-10-09T04:35:54.297Z,8.63
2022-10-09T04:41:23.344Z,6.17
2022-10-09T04:46:55.475Z,5.77
2022-10-09T04:52:23.320Z,10.13
2022-10-09T04:55:12.816Z,7.30
2022-10-09T05:00:46.279Z,5.73
2022-10-09T05:06:21.551Z,10.87
2022-10-09T05:11:51.992Z,7.57
2022-10-09T05:14:41.424Z,9.23
2022-10-09T05:20:10.355Z,8.47
2022-10-09T05:25:55.320Z,9.83
2022-10-09T05:28:44.436Z,7.27
2022-10-09T05:31:33.140Z,7.90
2022-10-09T05:37:24.080Z,7.97
2022-10-09T05:42:56.028Z,8.50
2022-10-09T05:45:44.431Z,5.37
2022-10-09T05:48:33.075Z,5.23
2022-10-09T05:54:10.573Z,6.97
2022-10-09T05:59:40.851Z,9.80
2022-10-09T06:05:17.288Z,7.67
2022-10-09T06:10:49.828Z,5.53
2022-10-09T06:13:39.312Z,7.90
2022-10-09T06:19:17.186Z,6.87
2022-10-09T06:22:05.530Z,5.30
2022-10-09T06:24:53.731Z,6.07
2022-10-09T06:27:42.246Z,8.67
2022-10-09T06:30:40.827Z,4.50
2022-10-09T06:33:32.360Z,7.67
2022-10-09T06:39:10.964Z,9.00
2022-10-09T06:44:35.322Z,8.13
2022-10-09T06:47:23.519Z,8.97
2022-10-09T06:50:13.522Z,7.30
2022-10-09T06:55:53.053Z,8.53
2022-10-09T07:01:32.243Z,8.00
2022-10-09T07:04:22.488Z,8.00
2022-10-09T07:07:11.201Z,10.10
2022-10-09T07:10:00.352Z,5.53
2022-10-09T07:18:25.462Z,12.87
2022-10-09T07:24:02.867Z,8.67
2022-10-09T07:29:36.343Z,10.47
2022-10-09T07:32:25.079Z,9.20
2022-10-09T07:40:44.126Z,6.33
2022-10-09T07:46:19.524Z,7.00
2022-10-09T07:51:49.591Z,7.30
2022-10-09T07:54:38.221Z,10.60
2022-10-09T07:57:26.504Z,7.23
2022-10-09T08:03:02.889Z,12.60
2022-10-09T08:08:43.887Z,7.80
2022-10-09T08:14:19.790Z,7.27
2022-10-09T08:19:53.951Z,10.43
2022-10-09T08:25:29.701Z,6.90
2022-10-09T08:28:18.771Z,9.00
2022-10-09T08:31:15.432Z,9.30
2022-10-09T08:36:51.106Z,6.23
2022-10-09T08:42:33.114Z,9.63
2022-10-09T08:45:25.794Z,16.23
2022-10-09T08:51:03.696Z,10.83
2022-10-09T08:56:40.032Z,8.43
2022-10-09T09:02:25.468Z,8.60
2022-10-09T09:08:17.337Z,11.07
2022-10-09T09:14:00.283Z,9.80
2022-10-09T09:19:57.625Z,12.10
2022-10-09T09:28:23.770Z,8.53
2022-10-09T09:34:06.790Z,10.77
2022-10-09T09:45:20.149Z,10.77
2022-10-09T09:51:16.230Z,8.70
2022-10-09T09:53:49.093Z,10.93
2022-10-09T09:57:10.363Z,10.17
2022-10-09T10:02:26.174Z,9.07
2022-10-09T10:08:22.737Z,11.07
2022-10-09T10:14:10.314Z,13.33
2022-10-09T10:19:51.718Z,13.93
2022-10-09T10:22:39.911Z,9.33
2022-10-09T10:28:21.463Z,11.60
2022-10-09T10:36:42.555Z,10.47
2022-10-09T10:39:35.195Z,13.30
2022-10-09T10:45:17.031Z,13.80
2022-10-09T10:48:08.858Z,10.67
2022-10-09T10:56:40.712Z,9.47
2022-10-09T11:02:42.071Z,8.90
2022-10-09T11:14:35.790Z,13.57
2022-10-09T11:20:40.036Z,11.77
2022-10-09T11:26:23.260Z,13.83
2022-10-09T11:32:08.609Z,11.60
2022-10-09T11:37:49.201Z,11.57
2022-10-09T11:43:48.489Z,9.30
2022-10-09T11:46:44.248Z,13.53
2022-10-09T11:55:25.450Z,12.07
2022-10-09T11:58:25.924Z,9.73
2022-10-09T12:04:50.121Z,10.33
2022-10-09T12:10:06.394Z,11.33
2022-10-09T12:16:01.308Z,10.33
2022-10-09T12:18:51.632Z,9.40
2022-10-09T12:21:43.656Z,9.60
2022-10-09T12:24:33.993Z,10.53
2022-10-09T12:27:25.050Z,13.27
2022-10-09T12:30:21.647Z,9.47
2022-10-09T12:36:05.149Z,10.77
2022-10-09T12:44:41.537Z,9.27
2022-10-09T12:50:26.836Z,12.33
2022-10-09T12:53:18.370Z,12.63
2022-10-09T12:58:56.582Z,10.13
2022-10-09T13:04:35.597Z,10.70
2022-10-09T13:10:20.163Z,12.63
2022-10-09T13:13:15.305Z,12.17
2022-10-09T13:19:01.455Z,16.43
2022-10-09T13:24:50.013Z,9.47
2022-10-09T13:27:40.058Z,8.43
2022-10-09T13:30:28.668Z,12.97
2022-10-09T13:33:18.782Z,10.00
2022-10-09T13:36:07.928Z,14.47
2022-10-09T13:41:45.016Z,8.37
2022-10-09T13:44:33.266Z,7.50
2022-10-09T13:50:14.001Z,15.10
2022-10-09T13:55:48.224Z,9.50
2022-10-09T13:58:38.269Z,10.77
2022-10-09T14:01:26.910Z,15.20
2022-10-09T14:07:03.870Z,8.60
2022-10-09T14:09:51.691Z,9.53
2022-10-09T14:15:28.276Z,9.67
2022-10-09T14:21:14.616Z,10.53
2022-10-09T14:24:01.002Z,10.47
2022-10-09T14:29:32.184Z,9.20
2022-10-09T14:32:20.509Z,9.50
2022-10-09T14:37:59.424Z,9.40
2022-10-09T14:43:36.192Z,9.27
2022-10-09T14:49:13.102Z,6.83
2022-10-09T14:54:48.028Z,8.60
2022-10-09T15:03:05.475Z,7.07
2022-10-09T15:08:53.024Z,8.23
2022-10-09T15:14:30.253Z,7.30
2022-10-09T15:17:18.751Z,10.90
2022-10-09T15:20:08.264Z,9.60
2022-10-09T15:22:56.767Z,10.30
2022-10-09T15:28:29.085Z,10.67
2022-10-09T15:31:22.810Z,7.07
2022-10-09T15:36:56.605Z,9.43
2022-10-09T15:39:47.123Z,7.10
2022-10-09T15:45:24.098Z,7.33
2022-10-09T15:51:11.578Z,9.43
2022-10-09T15:56:49.168Z,7.50
2022-10-09T16:02:25.748Z,11.90
2022-10-09T16:08:06.025Z,8.67
2022-10-09T16:13:43.626Z,9.43
2022-10-09T16:19:14.981Z,11.63
2022-10-09T16:22:04.955Z,8.73
2022-10-09T16:24:53.110Z,6.97
2022-10-09T16:33:22.487Z,8.40
2022-10-09T16:39:04.322Z,8.80
2022-10-09T16:47:28.215Z,9.33
2022-10-09T16:53:03.760Z,8.07
2022-10-09T16:58:42.714Z,7.87
2022-10-09T17:04:37.371Z,9.20
2022-10-09T17:10:13.566Z,9.33
2022-10-09T17:15:49.751Z,8.27
2022-10-09T17:21:27.955Z,7.90
2022-10-09T17:24:16.700Z,8.90
2022-10-09T17:27:07.117Z,10.93
2022-10-09T17:32:36.830Z,9.10
2022-10-09T17:35:25.040Z,10.33
2022-10-09T17:41:00.748Z,13.57
2022-10-09T17:46:32.850Z,10.40
2022-10-09T17:54:54.248Z,11.33
2022-10-09T18:03:12.727Z,11.53
2022-10-09T18:08:39.983Z,9.77
2022-10-09T18:14:13.098Z,11.60
2022-10-09T18:19:41.289Z,10.43
2022-10-09T18:25:25.389Z,10.90
2022-10-09T18:31:04.499Z,10.73
2022-10-09T18:39:28.914Z,8.00
2022-10-09T18:45:13.699Z,11.57
2022-10-09T18:50:50.928Z,13.07
2022-10-09T18:53:40.248Z,10.87
2022-10-09T18:59:20.909Z,11.07
2022-10-09T19:02:10.174Z,12.07
2022-10-09T19:04:58.864Z,13.87
2022-10-09T19:10:51.380Z,12.83
2022-10-09T19:16:24.380Z,10.93
2022-10-09T19:19:14.467Z,10.17
2022-10-09T19:22:04.306Z,9.70
2022-10-09T19:24:53.443Z,9.43
2022-10-09T19:27:47.178Z,11.77
2022-10-09T19:33:26.601Z,13.27
2022-10-09T19:41:41.891Z,13.80
2022-10-09T19:47:33.521Z,10.00
2022-10-09T19:53:27.371Z,9.73
2022-10-09T19:58:58.911Z,11.27
2022-10-09T20:07:12.833Z,12.03
2022-10-09T20:10:01.241Z,11.87
2022-10-09T20:12:50.856Z,8.77
2022-10-09T20:18:31.643Z,10.57
2022-10-09T20:24:08.890Z,11.43
2022-10-09T20:29:39.867Z,12.30
2022-10-09T20:32:29.538Z,10.00
2022-10-09T20:38:21.998Z,11.27
2022-10-09T20:44:00.329Z,10.13
2022-10-09T20:49:37.646Z,10.13
2022-10-09T20:52:26.255Z,11.47
2022-10-09T20:55:15.156Z,11.77
2022-10-09T21:00:50.430Z,12.03
2022-10-09T21:06:30.798Z,12.57
2022-10-09T21:12:06.949Z,12.67
2022-10-09T21:18:01.682Z,14.83
2022-10-09T21:20:50.914Z,12.23
2022-10-09T21:23:39.528Z,12.80
2022-10-09T21:29:11.881Z,11.80
2022-10-09T21:32:00.238Z,10.90
2022-10-09T21:34:50.453Z,11.07
2022-10-09T21:40:27.009Z,12.20
2022-10-09T21:46:03.264Z,12.17
2022-10-09T21:48:51.248Z,10.60
2022-10-09T21:54:27.444Z,11.30
2022-10-09T21:57:16.732Z,12.67
2022-10-09T22:02:49.923Z,12.40
2022-10-09T22:05:41.359Z,10.80
2022-10-09T22:11:12.343Z,14.00
2022-10-09T22:16:49.121Z,13.47
2022-10-09T22:22:24.248Z,13.03
2022-10-09T22:25:12.473Z,12.63
2022-10-09T22:28:01.210Z,14.33
2022-10-09T22:33:37.935Z,17.00
2022-10-09T22:36:29.219Z,19.60
2022-10-09T22:42:05.345Z,16.57
2022-10-09T22:47:40.141Z,15.87
2022-10-09T22:53:16.091Z,16.70
2022-10-09T22:58:55.111Z,16.13
2022-10-09T23:04:38.206Z,18.07
2022-10-09T23:07:26.677Z,16.43
2022-10-09T23:10:15.858Z,17.43
2022-10-09T23:15:54.699Z,15.47
2022-10-09T23:21:30.750Z,19.30
2022-10-09T23:27:06.685Z,17.40
2022-10-09T23:32:46.312Z,15.37
2022-10-09T23:38:25.221Z,16.60
2022-10-09T23:44:02.947Z,20.33
2022-10-09T23:49:40.052Z,17.93
2022-10-09T23:55:12.466Z,18.70
2022-10-09T23:58:01.209Z,17.83
